Racine, Missouri
Current Conditions -  °F | °C
As of 9:17 AM on Monday 22 Dec 2014 (Local Time) from KJLN Reporting Station
Haze Haze  
Wind Chill: 41°   Ceiling: 600
Heat Index: 46°   Visibility: 3mi
Dew Point: 44°   Wind: 9mph
Humidity: 93%   Direction: 150°SSE
Pressure: 29.6"   Gusts: NA
Location:  36.9°N, 94.53°W
Report Text: KJLN 221517Z 15008KT 3SM BR OVC006 08/07 A2960 RMK AO2 T00780067
Loading
Personal Weather Stations






























Interactive Weather Map New forecast layout! Learn more

10-Day Weather Forecast

Advertisements
Track Severe Weather on mobile